sensor_id;sensor_type;location;lat;lon;timestamp;P1;durP1;ratioP1;P2;durP2;ratioP2
11490;SDS011;5802;52.832;4.758;2022-11-23T00:01:30;2.80;;;0.88;;
11490;SDS011;5802;52.832;4.758;2022-11-23T00:03:59;2.47;;;1.10;;
11490;SDS011;5802;52.832;4.758;2022-11-23T00:06:27;2.33;;;0.93;;
11490;SDS011;5802;52.832;4.758;2022-11-23T00:08:54;1.25;;;1.00;;
11490;SDS011;5802;52.832;4.758;2022-11-23T00:11:21;1.05;;;0.80;;
11490;SDS011;5802;52.832;4.758;2022-11-23T00:13:51;1.60;;;0.90;;
11490;SDS011;5802;52.832;4.758;2022-11-23T00:16:19;1.33;;;0.98;;
11490;SDS011;5802;52.832;4.758;2022-11-23T00:18:46;1.98;;;0.88;;
11490;SDS011;5802;52.832;4.758;2022-11-23T00:21:15;2.17;;;0.80;;
11490;SDS011;5802;52.832;4.758;2022-11-23T00:23:43;1.35;;;0.90;;
11490;SDS011;5802;52.832;4.758;2022-11-23T00:26:10;1.23;;;0.90;;
11490;SDS011;5802;52.832;4.758;2022-11-23T00:28:37;1.30;;;0.80;;
11490;SDS011;5802;52.832;4.758;2022-11-23T00:31:07;1.90;;;0.73;;
11490;SDS011;5802;52.832;4.758;2022-11-23T00:33:36;3.13;;;0.90;;
11490;SDS011;5802;52.832;4.758;2022-11-23T00:36:03;1.10;;;0.80;;
11490;SDS011;5802;52.832;4.758;2022-11-23T00:38:32;1.60;;;1.02;;
11490;SDS011;5802;52.832;4.758;2022-11-23T00:40:58;1.83;;;1.20;;
11490;SDS011;5802;52.832;4.758;2022-11-23T00:43:26;1.10;;;0.80;;
11490;SDS011;5802;52.832;4.758;2022-11-23T00:46:03;1.25;;;0.95;;
11490;SDS011;5802;52.832;4.758;2022-11-23T00:48:33;3.80;;;1.10;;
11490;SDS011;5802;52.832;4.758;2022-11-23T00:50:59;1.45;;;1.00;;
11490;SDS011;5802;52.832;4.758;2022-11-23T00:53:26;1.30;;;0.90;;
11490;SDS011;5802;52.832;4.758;2022-11-23T00:55:54;2.45;;;1.35;;
11490;SDS011;5802;52.832;4.758;2022-11-23T00:58:21;3.20;;;1.00;;
11490;SDS011;5802;52.832;4.758;2022-11-23T01:00:49;1.38;;;0.90;;
11490;SDS011;5802;52.832;4.758;2022-11-23T01:03:16;2.83;;;1.10;;
11490;SDS011;5802;52.832;4.758;2022-11-23T01:05:44;2.25;;;1.10;;
11490;SDS011;5802;52.832;4.758;2022-11-23T01:08:10;4.10;;;1.00;;
11490;SDS011;5802;52.832;4.758;2022-11-23T01:10:37;4.38;;;1.08;;
11490;SDS011;5802;52.832;4.758;2022-11-23T01:13:04;1.63;;;1.13;;
11490;SDS011;5802;52.832;4.758;2022-11-23T01:15:30;6.45;;;1.40;;
11490;SDS011;5802;52.832;4.758;2022-11-23T01:17:57;3.33;;;1.30;;
11490;SDS011;5802;52.832;4.758;2022-11-23T01:20:24;5.32;;;1.30;;
11490;SDS011;5802;52.832;4.758;2022-11-23T01:22:52;3.25;;;1.30;;
11490;SDS011;5802;52.832;4.758;2022-11-23T01:25:18;3.40;;;1.27;;
11490;SDS011;5802;52.832;4.758;2022-11-23T01:27:45;3.83;;;1.33;;
11490;SDS011;5802;52.832;4.758;2022-11-23T01:30:12;1.45;;;0.85;;
11490;SDS011;5802;52.832;4.758;2022-11-23T01:32:39;3.35;;;1.25;;
11490;SDS011;5802;52.832;4.758;2022-11-23T01:35:06;1.77;;;0.90;;
11490;SDS011;5802;52.832;4.758;2022-11-23T01:37:33;2.17;;;1.00;;
11490;SDS011;5802;52.832;4.758;2022-11-23T01:40:01;1.33;;;1.00;;
11490;SDS011;5802;52.832;4.758;2022-11-23T01:42:48;2.70;;;1.20;;
11490;SDS011;5802;52.832;4.758;2022-11-23T01:45:30;1.92;;;1.00;;
11490;SDS011;5802;52.832;4.758;2022-11-23T01:48:00;1.92;;;1.20;;
11490;SDS011;5802;52.832;4.758;2022-11-23T01:50:27;1.90;;;1.20;;
11490;SDS011;5802;52.832;4.758;2022-11-23T01:52:54;2.00;;;1.10;;
11490;SDS011;5802;52.832;4.758;2022-11-23T01:55:23;1.48;;;1.10;;
11490;SDS011;5802;52.832;4.758;2022-11-23T01:57:51;2.42;;;1.00;;
11490;SDS011;5802;52.832;4.758;2022-11-23T02:00:20;2.45;;;1.10;;
11490;SDS011;5802;52.832;4.758;2022-11-23T02:02:49;5.18;;;1.40;;
11490;SDS011;5802;52.832;4.758;2022-11-23T02:05:18;1.52;;;1.00;;
11490;SDS011;5802;52.832;4.758;2022-11-23T02:07:48;1.60;;;1.00;;
11490;SDS011;5802;52.832;4.758;2022-11-23T02:10:15;1.23;;;0.98;;
11490;SDS011;5802;52.832;4.758;2022-11-23T02:12:45;3.97;;;1.30;;
11490;SDS011;5802;52.832;4.758;2022-11-23T02:15:11;6.10;;;1.00;;
11490;SDS011;5802;52.832;4.758;2022-11-23T02:17:38;1.88;;;1.10;;
11490;SDS011;5802;52.832;4.758;2022-11-23T02:20:06;3.60;;;1.15;;
11490;SDS011;5802;52.832;4.758;2022-11-23T02:22:38;2.05;;;1.10;;
11490;SDS011;5802;52.832;4.758;2022-11-23T02:25:15;2.40;;;1.10;;
11490;SDS011;5802;52.832;4.758;2022-11-23T02:27:51;1.70;;;1.20;;
11490;SDS011;5802;52.832;4.758;2022-11-23T02:30:19;3.95;;;1.35;;
11490;SDS011;5802;52.832;4.758;2022-11-23T02:32:45;1.70;;;1.10;;
11490;SDS011;5802;52.832;4.758;2022-11-23T02:35:12;1.50;;;1.00;;
11490;SDS011;5802;52.832;4.758;2022-11-23T02:37:39;1.88;;;0.90;;
11490;SDS011;5802;52.832;4.758;2022-11-23T02:40:10;2.55;;;1.30;;
11490;SDS011;5802;52.832;4.758;2022-11-23T02:42:44;1.20;;;1.00;;
11490;SDS011;5802;52.832;4.758;2022-11-23T02:45:14;2.78;;;0.90;;
11490;SDS011;5802;52.832;4.758;2022-11-23T02:47:48;2.83;;;1.23;;
11490;SDS011;5802;52.832;4.758;2022-11-23T02:50:15;2.08;;;1.33;;
11490;SDS011;5802;52.832;4.758;2022-11-23T02:52:42;1.73;;;1.05;;
11490;SDS011;5802;52.832;4.758;2022-11-23T02:55:09;1.48;;;0.90;;
11490;SDS011;5802;52.832;4.758;2022-11-23T02:57:35;1.90;;;1.08;;
11490;SDS011;5802;52.832;4.758;2022-11-23T03:00:02;1.02;;;0.90;;
11490;SDS011;5802;52.832;4.758;2022-11-23T03:02:31;1.27;;;0.93;;
11490;SDS011;5802;52.832;4.758;2022-11-23T03:04:58;2.83;;;1.30;;
11490;SDS011;5802;52.832;4.758;2022-11-23T03:07:25;1.23;;;1.02;;
11490;SDS011;5802;52.832;4.758;2022-11-23T03:09:51;1.05;;;0.82;;
11490;SDS011;5802;52.832;4.758;2022-11-23T03:12:18;2.40;;;1.20;;
11490;SDS011;5802;52.832;4.758;2022-11-23T03:14:45;2.17;;;1.20;;
11490;SDS011;5802;52.832;4.758;2022-11-23T03:17:12;2.17;;;1.10;;
11490;SDS011;5802;52.832;4.758;2022-11-23T03:19:40;1.95;;;1.00;;
11490;SDS011;5802;52.832;4.758;2022-11-23T03:22:06;2.83;;;1.05;;
11490;SDS011;5802;52.832;4.758;2022-11-23T03:24:33;1.77;;;0.90;;
11490;SDS011;5802;52.832;4.758;2022-11-23T03:27:00;2.25;;;0.95;;
11490;SDS011;5802;52.832;4.758;2022-11-23T03:29:27;1.35;;;1.02;;
11490;SDS011;5802;52.832;4.758;2022-11-23T03:31:54;2.33;;;1.20;;
11490;SDS011;5802;52.832;4.758;2022-11-23T03:34:21;1.75;;;1.00;;
11490;SDS011;5802;52.832;4.758;2022-11-23T03:36:49;2.17;;;1.10;;
11490;SDS011;5802;52.832;4.758;2022-11-23T03:39:16;1.70;;;0.85;;
11490;SDS011;5802;52.832;4.758;2022-11-23T03:41:43;1.23;;;0.90;;
11490;SDS011;5802;52.832;4.758;2022-11-23T03:44:09;1.77;;;1.00;;
11490;SDS011;5802;52.832;4.758;2022-11-23T03:46:36;1.13;;;0.80;;
11490;SDS011;5802;52.832;4.758;2022-11-23T03:49:03;2.45;;;1.25;;
11490;SDS011;5802;52.832;4.758;2022-11-23T03:51:30;1.38;;;0.80;;
11490;SDS011;5802;52.832;4.758;2022-11-23T03:53:58;1.63;;;0.93;;
11490;SDS011;5802;52.832;4.758;2022-11-23T03:56:25;1.20;;;0.88;;
11490;SDS011;5802;52.832;4.758;2022-11-23T03:58:51;2.50;;;1.10;;
11490;SDS011;5802;52.832;4.758;2022-11-23T04:01:18;1.73;;;1.08;;
11490;SDS011;5802;52.832;4.758;2022-11-23T04:03:44;2.03;;;1.13;;
11490;SDS011;5802;52.832;4.758;2022-11-23T04:06:11;1.88;;;1.23;;
11490;SDS011;5802;52.832;4.758;2022-11-23T04:08:38;1.02;;;0.88;;
11490;SDS011;5802;52.832;4.758;2022-11-23T04:11:06;2.75;;;1.00;;
11490;SDS011;5802;52.832;4.758;2022-11-23T04:13:32;1.67;;;0.90;;
11490;SDS011;5802;52.832;4.758;2022-11-23T04:15:59;4.22;;;1.10;;
11490;SDS011;5802;52.832;4.758;2022-11-23T04:18:26;1.42;;;0.90;;
11490;SDS011;5802;52.832;4.758;2022-11-23T04:20:52;3.20;;;1.02;;
11490;SDS011;5802;52.832;4.758;2022-11-23T04:23:19;1.02;;;0.85;;
11490;SDS011;5802;52.832;4.758;2022-11-23T04:25:46;1.92;;;1.10;;
11490;SDS011;5802;52.832;4.758;2022-11-23T04:28:14;1.40;;;1.00;;
11490;SDS011;5802;52.832;4.758;2022-11-23T04:30:40;1.65;;;0.90;;
11490;SDS011;5802;52.832;4.758;2022-11-23T04:33:07;1.48;;;1.00;;
11490;SDS011;5802;52.832;4.758;2022-11-23T04:35:34;3.38;;;0.90;;
11490;SDS011;5802;52.832;4.758;2022-11-23T04:38:02;2.67;;;1.02;;
11490;SDS011;5802;52.832;4.758;2022-11-23T04:40:29;1.75;;;0.90;;
11490;SDS011;5802;52.832;4.758;2022-11-23T04:42:56;1.77;;;1.00;;
11490;SDS011;5802;52.832;4.758;2022-11-23T04:45:24;1.90;;;0.90;;
11490;SDS011;5802;52.832;4.758;2022-11-23T04:47:51;2.22;;;0.80;;
11490;SDS011;5802;52.832;4.758;2022-11-23T04:50:17;1.58;;;0.90;;
11490;SDS011;5802;52.832;4.758;2022-11-23T04:52:44;1.33;;;0.90;;
11490;SDS011;5802;52.832;4.758;2022-11-23T04:55:11;1.95;;;0.88;;
11490;SDS011;5802;52.832;4.758;2022-11-23T04:57:37;1.65;;;1.10;;
11490;SDS011;5802;52.832;4.758;2022-11-23T05:00:04;2.53;;;1.00;;
11490;SDS011;5802;52.832;4.758;2022-11-23T05:02:33;3.58;;;0.95;;
11490;SDS011;5802;52.832;4.758;2022-11-23T05:05:00;2.63;;;1.02;;
11490;SDS011;5802;52.832;4.758;2022-11-23T05:07:27;2.17;;;1.15;;
11490;SDS011;5802;52.832;4.758;2022-11-23T05:09:53;1.10;;;0.90;;
11490;SDS011;5802;52.832;4.758;2022-11-23T05:12:20;1.08;;;0.80;;
11490;SDS011;5802;52.832;4.758;2022-11-23T05:14:47;1.25;;;0.85;;
11490;SDS011;5802;52.832;4.758;2022-11-23T05:17:13;1.70;;;1.00;;
11490;SDS011;5802;52.832;4.758;2022-11-23T05:19:41;2.50;;;0.93;;
11490;SDS011;5802;52.832;4.758;2022-11-23T05:22:09;1.10;;;0.80;;
11490;SDS011;5802;52.832;4.758;2022-11-23T05:24:36;1.58;;;0.98;;
11490;SDS011;5802;52.832;4.758;2022-11-23T05:27:02;1.13;;;0.90;;
11490;SDS011;5802;52.832;4.758;2022-11-23T05:29:29;1.25;;;0.88;;
11490;SDS011;5802;52.832;4.758;2022-11-23T05:31:56;0.80;;;0.80;;
11490;SDS011;5802;52.832;4.758;2022-11-23T05:34:22;1.25;;;0.90;;
11490;SDS011;5802;52.832;4.758;2022-11-23T05:36:51;1.83;;;0.90;;
11490;SDS011;5802;52.832;4.758;2022-11-23T05:39:17;0.98;;;0.70;;
11490;SDS011;5802;52.832;4.758;2022-11-23T05:41:44;1.42;;;0.90;;
11490;SDS011;5802;52.832;4.758;2022-11-23T05:44:11;1.20;;;0.77;;
11490;SDS011;5802;52.832;4.758;2022-11-23T05:46:37;1.75;;;1.17;;
11490;SDS011;5802;52.832;4.758;2022-11-23T05:49:04;1.40;;;1.00;;
11490;SDS011;5802;52.832;4.758;2022-11-23T05:51:30;1.10;;;0.90;;
11490;SDS011;5802;52.832;4.758;2022-11-23T05:53:59;1.38;;;0.90;;
11490;SDS011;5802;52.832;4.758;2022-11-23T05:56:26;1.60;;;1.08;;
11490;SDS011;5802;52.832;4.758;2022-11-23T05:58:53;1.30;;;0.88;;
11490;SDS011;5802;52.832;4.758;2022-11-23T06:01:20;1.30;;;1.00;;
11490;SDS011;5802;52.832;4.758;2022-11-23T06:03:48;2.58;;;1.15;;
11490;SDS011;5802;52.832;4.758;2022-11-23T06:06:14;2.25;;;0.90;;
11490;SDS011;5802;52.832;4.758;2022-11-23T06:08:41;1.23;;;1.02;;
11490;SDS011;5802;52.832;4.758;2022-11-23T06:11:09;2.13;;;1.00;;
11490;SDS011;5802;52.832;4.758;2022-11-23T06:13:36;2.15;;;1.00;;
11490;SDS011;5802;52.832;4.758;2022-11-23T06:16:03;3.28;;;1.30;;
11490;SDS011;5802;52.832;4.758;2022-11-23T06:18:30;1.30;;;1.05;;
11490;SDS011;5802;52.832;4.758;2022-11-23T06:20:58;3.70;;;1.10;;
11490;SDS011;5802;52.832;4.758;2022-11-23T06:23:25;2.35;;;1.00;;
11490;SDS011;5802;52.832;4.758;2022-11-23T06:25:52;1.98;;;1.13;;
11490;SDS011;5802;52.832;4.758;2022-11-23T06:28:20;1.70;;;1.13;;
11490;SDS011;5802;52.832;4.758;2022-11-23T06:30:46;3.00;;;1.30;;
11490;SDS011;5802;52.832;4.758;2022-11-23T06:33:13;2.25;;;1.40;;
11490;SDS011;5802;52.832;4.758;2022-11-23T06:35:40;1.10;;;0.90;;
11490;SDS011;5802;52.832;4.758;2022-11-23T06:38:06;1.55;;;1.20;;
11490;SDS011;5802;52.832;4.758;2022-11-23T06:40:33;3.63;;;1.30;;
11490;SDS011;5802;52.832;4.758;2022-11-23T06:43:00;1.60;;;1.10;;
11490;SDS011;5802;52.832;4.758;2022-11-23T06:45:28;1.38;;;1.08;;
11490;SDS011;5802;52.832;4.758;2022-11-23T06:47:54;1.20;;;0.98;;
11490;SDS011;5802;52.832;4.758;2022-11-23T06:50:21;2.15;;;0.98;;
11490;SDS011;5802;52.832;4.758;2022-11-23T06:52:52;2.85;;;1.27;;
11490;SDS011;5802;52.832;4.758;2022-11-23T06:55:20;2.30;;;1.30;;
11490;SDS011;5802;52.832;4.758;2022-11-23T06:57:47;2.78;;;1.30;;
11490;SDS011;5802;52.832;4.758;2022-11-23T07:00:14;2.55;;;1.10;;
11490;SDS011;5802;52.832;4.758;2022-11-23T07:02:43;2.78;;;1.20;;
11490;SDS011;5802;52.832;4.758;2022-11-23T07:05:16;2.08;;;1.20;;
11490;SDS011;5802;52.832;4.758;2022-11-23T07:07:42;3.58;;;1.35;;
11490;SDS011;5802;52.832;4.758;2022-11-23T07:10:09;2.20;;;1.20;;
11490;SDS011;5802;52.832;4.758;2022-11-23T07:12:36;4.00;;;1.20;;
11490;SDS011;5802;52.832;4.758;2022-11-23T07:15:03;1.65;;;1.20;;
11490;SDS011;5802;52.832;4.758;2022-11-23T07:17:30;1.40;;;1.20;;
11490;SDS011;5802;52.832;4.758;2022-11-23T07:19:58;1.67;;;1.10;;
11490;SDS011;5802;52.832;4.758;2022-11-23T07:22:25;1.92;;;1.08;;
11490;SDS011;5802;52.832;4.758;2022-11-23T07:24:51;1.20;;;1.05;;
11490;SDS011;5802;52.832;4.758;2022-11-23T07:27:18;2.58;;;1.40;;
11490;SDS011;5802;52.832;4.758;2022-11-23T07:29:45;1.70;;;1.30;;
11490;SDS011;5802;52.832;4.758;2022-11-23T07:32:12;1.40;;;1.15;;
11490;SDS011;5802;52.832;4.758;2022-11-23T07:34:39;1.38;;;1.00;;
11490;SDS011;5802;52.832;4.758;2022-11-23T07:37:07;3.10;;;1.23;;
11490;SDS011;5802;52.832;4.758;2022-11-23T07:39:34;1.98;;;1.05;;
11490;SDS011;5802;52.832;4.758;2022-11-23T07:42:01;2.45;;;1.00;;
11490;SDS011;5802;52.832;4.758;2022-11-23T07:44:27;3.10;;;1.00;;
11490;SDS011;5802;52.832;4.758;2022-11-23T07:46:55;2.22;;;1.20;;
11490;SDS011;5802;52.832;4.758;2022-11-23T07:49:22;1.13;;;0.90;;
11490;SDS011;5802;52.832;4.758;2022-11-23T07:51:48;2.47;;;1.13;;
11490;SDS011;5802;52.832;4.758;2022-11-23T07:54:16;2.45;;;1.23;;
11490;SDS011;5802;52.832;4.758;2022-11-23T07:56:43;3.83;;;1.10;;
11490;SDS011;5802;52.832;4.758;2022-11-23T07:59:09;2.60;;;1.27;;
11490;SDS011;5802;52.832;4.758;2022-11-23T08:01:36;1.75;;;1.20;;
11490;SDS011;5802;52.832;4.758;2022-11-23T08:04:03;2.95;;;1.10;;
11490;SDS011;5802;52.832;4.758;2022-11-23T08:06:30;3.10;;;1.13;;
11490;SDS011;5802;52.832;4.758;2022-11-23T08:08:57;2.08;;;1.10;;
11490;SDS011;5802;52.832;4.758;2022-11-23T08:11:25;3.40;;;1.10;;
11490;SDS011;5802;52.832;4.758;2022-11-23T08:13:52;3.05;;;1.20;;
11490;SDS011;5802;52.832;4.758;2022-11-23T08:16:19;1.83;;;1.10;;
11490;SDS011;5802;52.832;4.758;2022-11-23T08:18:45;1.67;;;1.05;;
11490;SDS011;5802;52.832;4.758;2022-11-23T08:21:14;1.67;;;1.10;;
11490;SDS011;5802;52.832;4.758;2022-11-23T08:23:41;1.85;;;1.10;;
11490;SDS011;5802;52.832;4.758;2022-11-23T08:26:08;2.08;;;1.13;;
11490;SDS011;5802;52.832;4.758;2022-11-23T08:28:36;2.30;;;1.08;;
11490;SDS011;5802;52.832;4.758;2022-11-23T08:31:04;1.40;;;1.10;;
11490;SDS011;5802;52.832;4.758;2022-11-23T08:33:32;2.70;;;1.13;;
11490;SDS011;5802;52.832;4.758;2022-11-23T08:36:02;3.13;;;1.10;;
11490;SDS011;5802;52.832;4.758;2022-11-23T08:38:30;1.75;;;0.88;;
11490;SDS011;5802;52.832;4.758;2022-11-23T08:40:57;1.45;;;1.10;;
11490;SDS011;5802;52.832;4.758;2022-11-23T08:43:24;1.80;;;1.20;;
11490;SDS011;5802;52.832;4.758;2022-11-23T08:45:53;2.33;;;1.20;;
11490;SDS011;5802;52.832;4.758;2022-11-23T08:48:20;2.33;;;1.20;;
11490;SDS011;5802;52.832;4.758;2022-11-23T08:50:47;1.65;;;1.08;;
11490;SDS011;5802;52.832;4.758;2022-11-23T08:53:14;2.65;;;1.23;;
11490;SDS011;5802;52.832;4.758;2022-11-23T08:55:41;2.95;;;1.27;;
11490;SDS011;5802;52.832;4.758;2022-11-23T08:58:08;2.40;;;1.13;;
11490;SDS011;5802;52.832;4.758;2022-11-23T09:00:35;2.40;;;1.40;;
11490;SDS011;5802;52.832;4.758;2022-11-23T09:03:03;5.47;;;1.70;;
11490;SDS011;5802;52.832;4.758;2022-11-23T09:05:30;2.22;;;1.58;;
11490;SDS011;5802;52.832;4.758;2022-11-23T09:07:58;2.60;;;1.40;;
11490;SDS011;5802;52.832;4.758;2022-11-23T09:10:25;2.58;;;1.58;;
11490;SDS011;5802;52.832;4.758;2022-11-23T09:12:52;4.80;;;1.70;;
11490;SDS011;5802;52.832;4.758;2022-11-23T09:15:19;5.00;;;1.80;;
11490;SDS011;5802;52.832;4.758;2022-11-23T09:17:46;3.15;;;1.60;;
11490;SDS011;5802;52.832;4.758;2022-11-23T09:20:14;5.15;;;1.65;;
11490;SDS011;5802;52.832;4.758;2022-11-23T09:22:41;2.72;;;1.35;;
11490;SDS011;5802;52.832;4.758;2022-11-23T09:25:08;2.75;;;1.60;;
11490;SDS011;5802;52.832;4.758;2022-11-23T09:27:35;4.13;;;1.63;;
11490;SDS011;5802;52.832;4.758;2022-11-23T09:30:02;3.05;;;1.50;;
11490;SDS011;5802;52.832;4.758;2022-11-23T09:32:30;3.35;;;1.70;;
11490;SDS011;5802;52.832;4.758;2022-11-23T09:34:57;3.92;;;1.75;;
11490;SDS011;5802;52.832;4.758;2022-11-23T09:37:25;4.60;;;1.98;;
11490;SDS011;5802;52.832;4.758;2022-11-23T09:39:52;3.80;;;1.77;;
11490;SDS011;5802;52.832;4.758;2022-11-23T09:42:22;3.78;;;1.50;;
11490;SDS011;5802;52.832;4.758;2022-11-23T09:45:13;4.85;;;1.75;;
11490;SDS011;5802;52.832;4.758;2022-11-23T09:47:51;5.75;;;2.13;;
11490;SDS011;5802;52.832;4.758;2022-11-23T09:50:40;5.68;;;1.63;;
11490;SDS011;5802;52.832;4.758;2022-11-23T09:53:16;4.75;;;1.83;;
11490;SDS011;5802;52.832;4.758;2022-11-23T09:55:47;2.28;;;1.60;;
11490;SDS011;5802;52.832;4.758;2022-11-23T09:58:16;4.00;;;1.65;;
11490;SDS011;5802;52.832;4.758;2022-11-23T10:00:45;3.72;;;1.60;;
11490;SDS011;5802;52.832;4.758;2022-11-23T10:03:16;3.85;;;1.63;;
11490;SDS011;5802;52.832;4.758;2022-11-23T10:05:44;2.67;;;1.58;;
11490;SDS011;5802;52.832;4.758;2022-11-23T10:08:22;5.72;;;1.67;;
11490;SDS011;5802;52.832;4.758;2022-11-23T10:11:00;4.40;;;1.70;;
11490;SDS011;5802;52.832;4.758;2022-11-23T10:13:40;3.65;;;2.10;;
11490;SDS011;5802;52.832;4.758;2022-11-23T10:16:17;4.57;;;1.70;;
11490;SDS011;5802;52.832;4.758;2022-11-23T10:18:57;2.75;;;1.55;;
11490;SDS011;5802;52.832;4.758;2022-11-23T10:21:33;5.70;;;1.60;;
11490;SDS011;5802;52.832;4.758;2022-11-23T10:24:12;2.72;;;1.50;;
11490;SDS011;5802;52.832;4.758;2022-11-23T10:26:44;3.50;;;1.70;;
11490;SDS011;5802;52.832;4.758;2022-11-23T10:29:13;7.18;;;1.80;;
11490;SDS011;5802;52.832;4.758;2022-11-23T10:31:46;2.75;;;1.60;;
11490;SDS011;5802;52.832;4.758;2022-11-23T10:34:14;3.95;;;1.70;;
11490;SDS011;5802;52.832;4.758;2022-11-23T10:36:47;3.78;;;1.50;;
11490;SDS011;5802;52.832;4.758;2022-11-23T10:39:19;2.42;;;1.50;;
11490;SDS011;5802;52.832;4.758;2022-11-23T10:41:48;3.00;;;1.60;;
11490;SDS011;5802;52.832;4.758;2022-11-23T10:44:18;5.97;;;1.80;;
11490;SDS011;5802;52.832;4.758;2022-11-23T10:46:54;3.95;;;1.67;;
11490;SDS011;5802;52.832;4.758;2022-11-23T10:49:21;3.17;;;1.60;;
11490;SDS011;5802;52.832;4.758;2022-11-23T10:51:52;3.78;;;1.60;;
11490;SDS011;5802;52.832;4.758;2022-11-23T10:54:23;3.75;;;1.55;;
11490;SDS011;5802;52.832;4.758;2022-11-23T10:56:53;3.72;;;1.75;;
11490;SDS011;5802;52.832;4.758;2022-11-23T10:59:27;3.72;;;1.40;;
11490;SDS011;5802;52.832;4.758;2022-11-23T11:04:44;4.10;;;1.98;;
11490;SDS011;5802;52.832;4.758;2022-11-23T11:07:22;4.28;;;1.90;;
11490;SDS011;5802;52.832;4.758;2022-11-23T11:09:54;3.90;;;1.65;;
11490;SDS011;5802;52.832;4.758;2022-11-23T11:12:22;6.97;;;1.73;;
11490;SDS011;5802;52.832;4.758;2022-11-23T11:14:53;6.50;;;1.83;;
11490;SDS011;5802;52.832;4.758;2022-11-23T11:17:25;7.50;;;2.20;;
11490;SDS011;5802;52.832;4.758;2022-11-23T11:19:53;5.70;;;2.05;;
11490;SDS011;5802;52.832;4.758;2022-11-23T11:22:24;5.45;;;2.58;;
11490;SDS011;5802;52.832;4.758;2022-11-23T11:24:54;8.65;;;3.53;;
11490;SDS011;5802;52.832;4.758;2022-11-23T11:27:22;22.95;;;9.88;;
11490;SDS011;5802;52.832;4.758;2022-11-23T11:29:52;22.75;;;15.65;;
11490;SDS011;5802;52.832;4.758;2022-11-23T11:32:21;33.28;;;23.65;;
11490;SDS011;5802;52.832;4.758;2022-11-23T11:34:54;29.60;;;22.48;;
11490;SDS011;5802;52.832;4.758;2022-11-23T11:37:29;33.47;;;24.20;;
11490;SDS011;5802;52.832;4.758;2022-11-23T11:40:02;35.67;;;23.77;;
11490;SDS011;5802;52.832;4.758;2022-11-23T11:42:35;31.05;;;24.63;;
11490;SDS011;5802;52.832;4.758;2022-11-23T11:45:06;35.08;;;25.85;;
11490;SDS011;5802;52.832;4.758;2022-11-23T11:47:42;34.17;;;25.50;;
11490;SDS011;5802;52.832;4.758;2022-11-23T11:50:14;34.22;;;25.20;;
11490;SDS011;5802;52.832;4.758;2022-11-23T11:52:46;34.25;;;25.05;;
11490;SDS011;5802;52.832;4.758;2022-11-23T11:55:21;33.85;;;25.02;;
11490;SDS011;5802;52.832;4.758;2022-11-23T11:57:53;32.05;;;23.90;;
11490;SDS011;5802;52.832;4.758;2022-11-23T12:00:26;29.98;;;23.92;;
11490;SDS011;5802;52.832;4.758;2022-11-23T12:02:58;31.10;;;23.10;;
11490;SDS011;5802;52.832;4.758;2022-11-23T12:05:35;28.88;;;22.75;;
11490;SDS011;5802;52.832;4.758;2022-11-23T12:08:09;29.90;;;22.02;;
11490;SDS011;5802;52.832;4.758;2022-11-23T12:10:41;28.13;;;20.70;;
11490;SDS011;5802;52.832;4.758;2022-11-23T12:13:14;27.63;;;19.23;;
11490;SDS011;5802;52.832;4.758;2022-11-23T12:15:43;23.33;;;18.85;;
11490;SDS011;5802;52.832;4.758;2022-11-23T12:18:29;23.83;;;16.95;;
11490;SDS011;5802;52.832;4.758;2022-11-23T12:24:01;17.55;;;14.15;;
11490;SDS011;5802;52.832;4.758;2022-11-23T12:26:43;18.35;;;14.18;;
11490;SDS011;5802;52.832;4.758;2022-11-23T12:29:22;17.80;;;13.00;;
11490;SDS011;5802;52.832;4.758;2022-11-23T12:32:03;17.42;;;11.70;;
11490;SDS011;5802;52.832;4.758;2022-11-23T12:34:43;14.55;;;11.70;;
11490;SDS011;5802;52.832;4.758;2022-11-23T12:37:30;16.42;;;10.88;;
11490;SDS011;5802;52.832;4.758;2022-11-23T12:40:13;13.52;;;9.68;;
11490;SDS011;5802;52.832;4.758;2022-11-23T12:42:52;13.52;;;9.85;;
11490;SDS011;5802;52.832;4.758;2022-11-23T12:45:31;13.88;;;9.13;;
11490;SDS011;5802;52.832;4.758;2022-11-23T12:48:17;12.18;;;8.48;;
11490;SDS011;5802;52.832;4.758;2022-11-23T12:50:53;12.38;;;8.10;;
11490;SDS011;5802;52.832;4.758;2022-11-23T12:53:31;12.55;;;7.20;;
11490;SDS011;5802;52.832;4.758;2022-11-23T12:56:06;9.85;;;6.63;;
11490;SDS011;5802;52.832;4.758;2022-11-23T12:58:44;10.65;;;6.05;;
11490;SDS011;5802;52.832;4.758;2022-11-23T13:01:14;8.93;;;5.63;;
11490;SDS011;5802;52.832;4.758;2022-11-23T13:03:54;9.13;;;5.88;;
11490;SDS011;5802;52.832;4.758;2022-11-23T13:06:44;9.40;;;5.53;;
11490;SDS011;5802;52.832;4.758;2022-11-23T13:09:34;10.38;;;5.20;;
11490;SDS011;5802;52.832;4.758;2022-11-23T13:12:15;7.75;;;4.53;;
11490;SDS011;5802;52.832;4.758;2022-11-23T13:14:54;10.27;;;5.28;;
11490;SDS011;5802;52.832;4.758;2022-11-23T13:17:32;8.73;;;5.05;;
11490;SDS011;5802;52.832;4.758;2022-11-23T13:20:14;6.03;;;4.15;;
11490;SDS011;5802;52.832;4.758;2022-11-23T13:22:55;8.68;;;4.68;;
11490;SDS011;5802;52.832;4.758;2022-11-23T13:25:24;9.63;;;3.97;;
11490;SDS011;5802;52.832;4.758;2022-11-23T13:27:55;8.07;;;4.50;;
11490;SDS011;5802;52.832;4.758;2022-11-23T13:30:26;6.43;;;3.80;;
11490;SDS011;5802;52.832;4.758;2022-11-23T13:32:57;7.60;;;3.88;;
11490;SDS011;5802;52.832;4.758;2022-11-23T13:35:46;5.07;;;3.25;;
11490;SDS011;5802;52.832;4.758;2022-11-23T13:38:25;5.40;;;3.60;;
11490;SDS011;5802;52.832;4.758;2022-11-23T13:40:53;9.85;;;3.72;;
11490;SDS011;5802;52.832;4.758;2022-11-23T13:43:21;7.15;;;3.47;;
11490;SDS011;5802;52.832;4.758;2022-11-23T13:48:53;7.13;;;3.40;;
11490;SDS011;5802;52.832;4.758;2022-11-23T13:51:21;4.63;;;2.80;;
11490;SDS011;5802;52.832;4.758;2022-11-23T13:53:50;6.45;;;3.30;;
11490;SDS011;5802;52.832;4.758;2022-11-23T13:56:22;6.43;;;2.92;;
11490;SDS011;5802;52.832;4.758;2022-11-23T13:58:55;5.20;;;2.83;;
11490;SDS011;5802;52.832;4.758;2022-11-23T14:04:47;8.13;;;2.45;;
11490;SDS011;5802;52.832;4.758;2022-11-23T14:07:14;6.82;;;2.83;;
11490;SDS011;5802;52.832;4.758;2022-11-23T14:09:47;5.38;;;2.53;;
11490;SDS011;5802;52.832;4.758;2022-11-23T14:12:17;7.03;;;2.90;;
11490;SDS011;5802;52.832;4.758;2022-11-23T14:14:52;4.85;;;2.40;;
11490;SDS011;5802;52.832;4.758;2022-11-23T14:17:39;4.30;;;2.45;;
11490;SDS011;5802;52.832;4.758;2022-11-23T14:20:29;6.45;;;2.17;;
11490;SDS011;5802;52.832;4.758;2022-11-23T14:23:17;5.22;;;2.38;;
11490;SDS011;5802;52.832;4.758;2022-11-23T14:26:00;4.32;;;2.00;;
11490;SDS011;5802;52.832;4.758;2022-11-23T14:28:41;4.07;;;1.80;;
11490;SDS011;5802;52.832;4.758;2022-11-23T14:31:21;3.88;;;1.98;;
11490;SDS011;5802;52.832;4.758;2022-11-23T14:33:55;4.68;;;2.25;;
11490;SDS011;5802;52.832;4.758;2022-11-23T14:36:31;3.38;;;2.00;;
11490;SDS011;5802;52.832;4.758;2022-11-23T14:39:08;4.32;;;2.17;;
11490;SDS011;5802;52.832;4.758;2022-11-23T14:41:58;3.65;;;2.03;;
11490;SDS011;5802;52.832;4.758;2022-11-23T14:44:28;3.47;;;1.98;;
11490;SDS011;5802;52.832;4.758;2022-11-23T14:47:00;6.85;;;2.10;;
11490;SDS011;5802;52.832;4.758;2022-11-23T14:49:29;4.55;;;2.08;;
11490;SDS011;5802;52.832;4.758;2022-11-23T14:51:55;3.33;;;1.65;;
11490;SDS011;5802;52.832;4.758;2022-11-23T14:54:23;2.72;;;1.70;;
11490;SDS011;5802;52.832;4.758;2022-11-23T14:56:51;3.75;;;1.90;;
11490;SDS011;5802;52.832;4.758;2022-11-23T14:59:23;2.55;;;1.77;;
11490;SDS011;5802;52.832;4.758;2022-11-23T15:01:55;3.75;;;1.88;;
11490;SDS011;5802;52.832;4.758;2022-11-23T15:04:24;4.03;;;1.63;;
11490;SDS011;5802;52.832;4.758;2022-11-23T15:06:55;5.18;;;2.00;;
11490;SDS011;5802;52.832;4.758;2022-11-23T15:09:32;2.75;;;1.55;;
11490;SDS011;5802;52.832;4.758;2022-11-23T15:12:05;3.90;;;1.70;;
11490;SDS011;5802;52.832;4.758;2022-11-23T15:14:32;2.90;;;1.90;;
11490;SDS011;5802;52.832;4.758;2022-11-23T15:17:11;3.05;;;1.60;;
11490;SDS011;5802;52.832;4.758;2022-11-23T15:19:38;4.32;;;2.22;;
11490;SDS011;5802;52.832;4.758;2022-11-23T15:22:12;4.10;;;1.58;;
11490;SDS011;5802;52.832;4.758;2022-11-23T15:24:41;4.20;;;1.60;;
11490;SDS011;5802;52.832;4.758;2022-11-23T15:27:11;3.38;;;1.80;;
11490;SDS011;5802;52.832;4.758;2022-11-23T15:29:49;4.20;;;1.48;;